sensor_id;sensor_type;location;lat;lon;timestamp;temperature;humidity
37956;DHT22;23776;51.592;7.180;2023-12-20T00:01:17;7.70;91.50
37956;DHT22;23776;51.592;7.180;2023-12-20T00:03:42;7.60;91.60
37956;DHT22;23776;51.592;7.180;2023-12-20T00:06:08;7.60;91.30
37956;DHT22;23776;51.592;7.180;2023-12-20T00:08:34;7.60;91.20
37956;DHT22;23776;51.592;7.180;2023-12-20T00:10:59;7.50;91.10
37956;DHT22;23776;51.592;7.180;2023-12-20T00:13:25;7.50;91.10
37956;DHT22;23776;51.592;7.180;2023-12-20T00:15:50;7.50;90.90
37956;DHT22;23776;51.592;7.180;2023-12-20T00:18:16;7.40;90.00
37956;DHT22;23776;51.592;7.180;2023-12-20T00:20:41;7.40;90.10
37956;DHT22;23776;51.592;7.180;2023-12-20T00:23:07;7.40;88.70
37956;DHT22;23776;51.592;7.180;2023-12-20T00:25:33;7.40;87.20
37956;DHT22;23776;51.592;7.180;2023-12-20T00:28:00;7.30;85.80
37956;DHT22;23776;51.592;7.180;2023-12-20T00:30:25;6.40;85.50
37956;DHT22;23776;51.592;7.180;2023-12-20T00:32:51;7.30;85.90
37956;DHT22;23776;51.592;7.180;2023-12-20T00:35:16;7.30;86.80
37956;DHT22;23776;51.592;7.180;2023-12-20T00:37:45;7.20;86.60
37956;DHT22;23776;51.592;7.180;2023-12-20T00:40:11;7.30;86.00
37956;DHT22;23776;51.592;7.180;2023-12-20T00:42:36;7.20;84.60
37956;DHT22;23776;51.592;7.180;2023-12-20T00:45:02;7.20;83.10
37956;DHT22;23776;51.592;7.180;2023-12-20T00:47:30;7.10;82.80
37956;DHT22;23776;51.592;7.180;2023-12-20T00:49:56;7.10;81.60
37956;DHT22;23776;51.592;7.180;2023-12-20T00:52:21;7.10;83.20
37956;DHT22;23776;51.592;7.180;2023-12-20T00:54:48;7.10;83.40
37956;DHT22;23776;51.592;7.180;2023-12-20T00:57:14;7.10;79.20
37956;DHT22;23776;51.592;7.180;2023-12-20T00:59:39;7.10;79.90
37956;DHT22;23776;51.592;7.180;2023-12-20T01:02:05;7.20;74.60
37956;DHT22;23776;51.592;7.180;2023-12-20T01:04:30;7.10;71.50
37956;DHT22;23776;51.592;7.180;2023-12-20T01:06:56;7.20;72.40
37956;DHT22;23776;51.592;7.180;2023-12-20T01:09:21;7.20;70.20
37956;DHT22;23776;51.592;7.180;2023-12-20T01:11:52;7.20;68.20
37956;DHT22;23776;51.592;7.180;2023-12-20T01:14:17;7.20;62.60
37956;DHT22;23776;51.592;7.180;2023-12-20T01:16:43;7.30;63.50
37956;DHT22;23776;51.592;7.180;2023-12-20T01:19:08;7.30;63.40
37956;DHT22;23776;51.592;7.180;2023-12-20T01:21:34;7.30;57.60
37956;DHT22;23776;51.592;7.180;2023-12-20T01:23:59;7.30;56.90
37956;DHT22;23776;51.592;7.180;2023-12-20T01:26:25;7.30;53.10
37956;DHT22;23776;51.592;7.180;2023-12-20T01:28:51;7.30;57.70
37956;DHT22;23776;51.592;7.180;2023-12-20T01:31:16;7.30;49.00
37956;DHT22;23776;51.592;7.180;2023-12-20T01:33:42;7.20;53.30
37956;DHT22;23776;51.592;7.180;2023-12-20T01:36:07;7.20;51.20
37956;DHT22;23776;51.592;7.180;2023-12-20T01:38:33;7.10;55.60
37956;DHT22;23776;51.592;7.180;2023-12-20T01:40:59;7.00;60.50
37956;DHT22;23776;51.592;7.180;2023-12-20T01:43:25;7.00;57.50
37956;DHT22;23776;51.592;7.180;2023-12-20T01:45:51;7.00;58.80
37956;DHT22;23776;51.592;7.180;2023-12-20T01:48:18;6.90;59.50
37956;DHT22;23776;51.592;7.180;2023-12-20T01:50:45;6.90;60.40
37956;DHT22;23776;51.592;7.180;2023-12-20T01:53:12;7.00;63.80
37956;DHT22;23776;51.592;7.180;2023-12-20T01:55:40;7.00;63.30
37956;DHT22;23776;51.592;7.180;2023-12-20T01:58:09;7.00;62.90
37956;DHT22;23776;51.592;7.180;2023-12-20T02:00:37;7.00;63.10
37956;DHT22;23776;51.592;7.180;2023-12-20T02:03:03;7.00;62.00
37956;DHT22;23776;51.592;7.180;2023-12-20T02:05:33;7.00;61.70
37956;DHT22;23776;51.592;7.180;2023-12-20T02:08:00;6.90;62.30
37956;DHT22;23776;51.592;7.180;2023-12-20T02:10:25;7.00;62.70
37956;DHT22;23776;51.592;7.180;2023-12-20T02:12:51;7.00;62.40
37956;DHT22;23776;51.592;7.180;2023-12-20T02:15:17;7.00;60.90
37956;DHT22;23776;51.592;7.180;2023-12-20T02:17:43;7.00;60.10
37956;DHT22;23776;51.592;7.180;2023-12-20T02:20:09;6.90;62.30
37956;DHT22;23776;51.592;7.180;2023-12-20T02:22:35;6.80;65.00
37956;DHT22;23776;51.592;7.180;2023-12-20T02:25:00;6.80;67.20
37956;DHT22;23776;51.592;7.180;2023-12-20T02:27:27;6.80;66.70
37956;DHT22;23776;51.592;7.180;2023-12-20T02:29:53;6.90;67.90
37956;DHT22;23776;51.592;7.180;2023-12-20T02:32:20;6.90;65.30
37956;DHT22;23776;51.592;7.180;2023-12-20T02:34:47;6.90;63.40
37956;DHT22;23776;51.592;7.180;2023-12-20T02:37:13;6.90;66.70
37956;DHT22;23776;51.592;7.180;2023-12-20T02:39:39;6.80;62.90
37956;DHT22;23776;51.592;7.180;2023-12-20T02:42:04;6.80;61.90
37956;DHT22;23776;51.592;7.180;2023-12-20T02:44:30;6.80;59.00
37956;DHT22;23776;51.592;7.180;2023-12-20T02:46:55;6.80;57.70
37956;DHT22;23776;51.592;7.180;2023-12-20T02:49:21;6.80;58.50
37956;DHT22;23776;51.592;7.180;2023-12-20T02:51:47;6.80;59.50
37956;DHT22;23776;51.592;7.180;2023-12-20T02:54:12;6.80;60.20
37956;DHT22;23776;51.592;7.180;2023-12-20T02:56:38;6.80;56.90
37956;DHT22;23776;51.592;7.180;2023-12-20T02:59:04;6.90;58.30
37956;DHT22;23776;51.592;7.180;2023-12-20T03:01:31;6.90;57.10
37956;DHT22;23776;51.592;7.180;2023-12-20T03:03:57;6.80;56.40
37956;DHT22;23776;51.592;7.180;2023-12-20T03:06:23;6.70;58.00
37956;DHT22;23776;51.592;7.180;2023-12-20T03:08:49;6.70;59.00
37956;DHT22;23776;51.592;7.180;2023-12-20T03:11:14;6.70;59.60
37956;DHT22;23776;51.592;7.180;2023-12-20T03:13:40;6.70;56.20
37956;DHT22;23776;51.592;7.180;2023-12-20T03:16:09;6.70;56.90
37956;DHT22;23776;51.592;7.180;2023-12-20T03:18:35;6.60;57.50
37956;DHT22;23776;51.592;7.180;2023-12-20T03:21:01;6.70;53.80
37956;DHT22;23776;51.592;7.180;2023-12-20T03:23:27;6.70;51.10
37956;DHT22;23776;51.592;7.180;2023-12-20T03:25:52;6.70;53.10
37956;DHT22;23776;51.592;7.180;2023-12-20T03:28:18;6.60;54.80
37956;DHT22;23776;51.592;7.180;2023-12-20T03:30:44;6.50;56.30
37956;DHT22;23776;51.592;7.180;2023-12-20T03:33:10;6.50;59.40
37956;DHT22;23776;51.592;7.180;2023-12-20T03:35:35;6.50;59.70
37956;DHT22;23776;51.592;7.180;2023-12-20T03:38:01;6.50;63.10
37956;DHT22;23776;51.592;7.180;2023-12-20T03:40:27;6.50;63.40
37956;DHT22;23776;51.592;7.180;2023-12-20T03:42:52;6.50;62.20
37956;DHT22;23776;51.592;7.180;2023-12-20T03:45:18;6.50;62.20
37956;DHT22;23776;51.592;7.180;2023-12-20T03:47:43;6.40;65.50
37956;DHT22;23776;51.592;7.180;2023-12-20T03:50:09;6.30;64.80
37956;DHT22;23776;51.592;7.180;2023-12-20T03:52:34;6.30;65.30
37956;DHT22;23776;51.592;7.180;2023-12-20T03:55:00;6.30;68.10
37956;DHT22;23776;51.592;7.180;2023-12-20T03:57:25;6.30;65.10
37956;DHT22;23776;51.592;7.180;2023-12-20T03:59:51;6.20;67.40
37956;DHT22;23776;51.592;7.180;2023-12-20T04:02:17;6.20;67.90
37956;DHT22;23776;51.592;7.180;2023-12-20T04:04:43;6.10;68.30
37956;DHT22;23776;51.592;7.180;2023-12-20T04:07:09;6.10;67.80
37956;DHT22;23776;51.592;7.180;2023-12-20T04:09:34;6.10;68.10
37956;DHT22;23776;51.592;7.180;2023-12-20T04:12:00;6.00;68.40
37956;DHT22;23776;51.592;7.180;2023-12-20T04:14:25;6.00;67.40
37956;DHT22;23776;51.592;7.180;2023-12-20T04:16:51;6.10;66.20
37956;DHT22;23776;51.592;7.180;2023-12-20T04:19:16;6.10;63.60
37956;DHT22;23776;51.592;7.180;2023-12-20T04:21:42;6.10;62.80
37956;DHT22;23776;51.592;7.180;2023-12-20T04:24:07;6.10;65.50
37956;DHT22;23776;51.592;7.180;2023-12-20T04:26:33;6.10;65.80
37956;DHT22;23776;51.592;7.180;2023-12-20T04:28:59;6.10;66.80
37956;DHT22;23776;51.592;7.180;2023-12-20T04:31:24;6.20;68.20
37956;DHT22;23776;51.592;7.180;2023-12-20T04:33:50;6.20;66.80
37956;DHT22;23776;51.592;7.180;2023-12-20T04:36:15;6.20;64.20
37956;DHT22;23776;51.592;7.180;2023-12-20T04:38:41;6.30;64.60
37956;DHT22;23776;51.592;7.180;2023-12-20T04:41:07;6.30;64.10
37956;DHT22;23776;51.592;7.180;2023-12-20T04:43:32;6.20;65.80
37956;DHT22;23776;51.592;7.180;2023-12-20T04:45:58;6.20;67.30
37956;DHT22;23776;51.592;7.180;2023-12-20T04:48:23;6.20;68.50
37956;DHT22;23776;51.592;7.180;2023-12-20T04:50:49;6.20;66.60
37956;DHT22;23776;51.592;7.180;2023-12-20T04:53:14;6.30;65.10
37956;DHT22;23776;51.592;7.180;2023-12-20T04:55:40;6.40;63.50
37956;DHT22;23776;51.592;7.180;2023-12-20T04:58:06;6.40;58.30
37956;DHT22;23776;51.592;7.180;2023-12-20T05:00:31;6.40;58.70
37956;DHT22;23776;51.592;7.180;2023-12-20T05:02:57;6.30;54.50
37956;DHT22;23776;51.592;7.180;2023-12-20T05:05:22;6.30;55.10
37956;DHT22;23776;51.592;7.180;2023-12-20T05:07:48;6.20;57.80
37956;DHT22;23776;51.592;7.180;2023-12-20T05:10:13;6.20;56.20
37956;DHT22;23776;51.592;7.180;2023-12-20T05:12:39;6.20;53.70
37956;DHT22;23776;51.592;7.180;2023-12-20T05:15:06;6.20;56.50
37956;DHT22;23776;51.592;7.180;2023-12-20T05:17:31;6.30;56.60
37956;DHT22;23776;51.592;7.180;2023-12-20T05:19:57;6.30;54.10
37956;DHT22;23776;51.592;7.180;2023-12-20T05:22:23;7.60;57.00
37956;DHT22;23776;51.592;7.180;2023-12-20T05:24:48;6.30;58.60
37956;DHT22;23776;51.592;7.180;2023-12-20T05:27:14;6.20;58.00
37956;DHT22;23776;51.592;7.180;2023-12-20T05:29:40;6.20;57.90
37956;DHT22;23776;51.592;7.180;2023-12-20T05:32:05;6.20;59.80
37956;DHT22;23776;51.592;7.180;2023-12-20T05:34:31;6.20;60.00
37956;DHT22;23776;51.592;7.180;2023-12-20T05:36:58;6.20;60.90
37956;DHT22;23776;51.592;7.180;2023-12-20T05:39:23;6.20;60.90
37956;DHT22;23776;51.592;7.180;2023-12-20T05:41:49;6.20;62.60
37956;DHT22;23776;51.592;7.180;2023-12-20T05:44:15;6.20;58.80
37956;DHT22;23776;51.592;7.180;2023-12-20T05:46:40;6.30;59.10
37956;DHT22;23776;51.592;7.180;2023-12-20T05:49:06;6.30;56.20
37956;DHT22;23776;51.592;7.180;2023-12-20T05:51:32;6.30;57.90
37956;DHT22;23776;51.592;7.180;2023-12-20T05:53:58;6.30;56.70
37956;DHT22;23776;51.592;7.180;2023-12-20T05:56:24;6.30;58.60
37956;DHT22;23776;51.592;7.180;2023-12-20T05:58:49;6.40;55.70
37956;DHT22;23776;51.592;7.180;2023-12-20T06:01:15;6.40;56.30
37956;DHT22;23776;51.592;7.180;2023-12-20T06:03:43;6.30;55.20
37956;DHT22;23776;51.592;7.180;2023-12-20T06:06:09;6.40;57.00
37956;DHT22;23776;51.592;7.180;2023-12-20T06:08:36;6.50;54.10
37956;DHT22;23776;51.592;7.180;2023-12-20T06:11:02;6.50;49.50
37956;DHT22;23776;51.592;7.180;2023-12-20T06:13:27;6.50;48.40
37956;DHT22;23776;51.592;7.180;2023-12-20T06:15:54;6.50;47.80
37956;DHT22;23776;51.592;7.180;2023-12-20T06:18:20;6.50;51.10
37956;DHT22;23776;51.592;7.180;2023-12-20T06:20:46;6.40;52.00
37956;DHT22;23776;51.592;7.180;2023-12-20T06:23:11;6.50;50.70
37956;DHT22;23776;51.592;7.180;2023-12-20T06:25:37;6.50;48.60
37956;DHT22;23776;51.592;7.180;2023-12-20T06:28:03;6.50;49.90
37956;DHT22;23776;51.592;7.180;2023-12-20T06:30:28;6.50;50.20
37956;DHT22;23776;51.592;7.180;2023-12-20T06:32:54;6.50;50.80
37956;DHT22;23776;51.592;7.180;2023-12-20T06:35:20;6.50;50.50
37956;DHT22;23776;51.592;7.180;2023-12-20T06:37:45;6.50;48.40
37956;DHT22;23776;51.592;7.180;2023-12-20T06:40:11;6.60;46.10
37956;DHT22;23776;51.592;7.180;2023-12-20T06:42:37;6.60;42.40
37956;DHT22;23776;51.592;7.180;2023-12-20T06:45:03;6.50;47.00
37956;DHT22;23776;51.592;7.180;2023-12-20T06:47:29;6.40;50.20
37956;DHT22;23776;51.592;7.180;2023-12-20T06:49:54;6.40;54.30
37956;DHT22;23776;51.592;7.180;2023-12-20T06:52:20;6.50;48.50
37956;DHT22;23776;51.592;7.180;2023-12-20T06:54:45;6.50;45.90
37956;DHT22;23776;51.592;7.180;2023-12-20T06:57:11;6.40;48.50
37956;DHT22;23776;51.592;7.180;2023-12-20T06:59:40;6.40;51.10
37956;DHT22;23776;51.592;7.180;2023-12-20T07:02:06;6.50;50.80
37956;DHT22;23776;51.592;7.180;2023-12-20T07:04:33;6.40;46.60
37956;DHT22;23776;51.592;7.180;2023-12-20T07:06:58;6.40;48.10
37956;DHT22;23776;51.592;7.180;2023-12-20T07:09:26;6.50;50.70
37956;DHT22;23776;51.592;7.180;2023-12-20T07:11:52;6.50;50.20
37956;DHT22;23776;51.592;7.180;2023-12-20T07:14:18;6.50;49.90
37956;DHT22;23776;51.592;7.180;2023-12-20T07:16:43;6.50;47.90
37956;DHT22;23776;51.592;7.180;2023-12-20T07:19:09;6.60;43.50
37956;DHT22;23776;51.592;7.180;2023-12-20T07:21:34;6.60;42.00
37956;DHT22;23776;51.592;7.180;2023-12-20T07:24:00;6.50;42.00
37956;DHT22;23776;51.592;7.180;2023-12-20T07:26:25;6.60;41.10
37956;DHT22;23776;51.592;7.180;2023-12-20T07:28:51;6.60;40.70
37956;DHT22;23776;51.592;7.180;2023-12-20T07:31:16;6.60;39.70
37956;DHT22;23776;51.592;7.180;2023-12-20T07:33:42;6.60;39.30
37956;DHT22;23776;51.592;7.180;2023-12-20T07:36:08;6.60;38.60
37956;DHT22;23776;51.592;7.180;2023-12-20T07:38:34;6.60;38.00
37956;DHT22;23776;51.592;7.180;2023-12-20T07:41:00;6.60;37.70
37956;DHT22;23776;51.592;7.180;2023-12-20T07:43:25;6.60;41.90
37956;DHT22;23776;51.592;7.180;2023-12-20T07:45:51;6.60;35.90
37956;DHT22;23776;51.592;7.180;2023-12-20T07:48:16;6.60;40.50
37956;DHT22;23776;51.592;7.180;2023-12-20T07:50:42;6.60;41.10
37956;DHT22;23776;51.592;7.180;2023-12-20T07:53:08;6.60;39.20
37956;DHT22;23776;51.592;7.180;2023-12-20T07:55:34;6.60;41.70
37956;DHT22;23776;51.592;7.180;2023-12-20T07:58:00;6.60;41.10
37956;DHT22;23776;51.592;7.180;2023-12-20T08:00:26;6.70;33.10
37956;DHT22;23776;51.592;7.180;2023-12-20T08:02:51;6.70;30.20
37956;DHT22;23776;51.592;7.180;2023-12-20T08:05:17;6.70;32.80
37956;DHT22;23776;51.592;7.180;2023-12-20T08:07:43;6.80;31.30
37956;DHT22;23776;51.592;7.180;2023-12-20T08:10:08;6.90;27.60
37956;DHT22;23776;51.592;7.180;2023-12-20T08:12:34;6.90;20.60
37956;DHT22;23776;51.592;7.180;2023-12-20T08:15:00;6.90;23.30
37956;DHT22;23776;51.592;7.180;2023-12-20T08:17:26;6.90;22.60
37956;DHT22;23776;51.592;7.180;2023-12-20T08:19:52;7.00;20.20
37956;DHT22;23776;51.592;7.180;2023-12-20T08:22:17;7.00;21.60
37956;DHT22;23776;51.592;7.180;2023-12-20T08:24:43;6.90;22.50
37956;DHT22;23776;51.592;7.180;2023-12-20T08:27:08;6.90;23.20
37956;DHT22;23776;51.592;7.180;2023-12-20T08:29:35;7.00;17.40
37956;DHT22;23776;51.592;7.180;2023-12-20T08:32:01;7.00;14.10
37956;DHT22;23776;51.592;7.180;2023-12-20T08:34:27;7.10;14.30
37956;DHT22;23776;51.592;7.180;2023-12-20T08:36:53;7.10;13.90
37956;DHT22;23776;51.592;7.180;2023-12-20T08:39:18;7.10;8.50
37956;DHT22;23776;51.592;7.180;2023-12-20T08:41:44;7.10;15.20
37956;DHT22;23776;51.592;7.180;2023-12-20T08:44:10;7.10;9.50
37956;DHT22;23776;51.592;7.180;2023-12-20T08:46:35;7.10;12.30
37956;DHT22;23776;51.592;7.180;2023-12-20T08:49:02;7.10;11.20
37956;DHT22;23776;51.592;7.180;2023-12-20T08:51:27;7.10;13.60
37956;DHT22;23776;51.592;7.180;2023-12-20T08:53:53;7.10;9.20
37956;DHT22;23776;51.592;7.180;2023-12-20T08:56:19;7.10;6.50
37956;DHT22;23776;51.592;7.180;2023-12-20T08:58:46;7.10;10.30
37956;DHT22;23776;51.592;7.180;2023-12-20T09:01:12;7.10;6.90
37956;DHT22;23776;51.592;7.180;2023-12-20T09:03:39;7.10;4.10
37956;DHT22;23776;51.592;7.180;2023-12-20T09:06:04;7.20;5.90
37956;DHT22;23776;51.592;7.180;2023-12-20T09:08:30;7.10;2.20
37956;DHT22;23776;51.592;7.180;2023-12-20T09:10:56;7.20;4.20
37956;DHT22;23776;51.592;7.180;2023-12-20T09:13:22;7.20;1.00
37956;DHT22;23776;51.592;7.180;2023-12-20T09:15:52;7.20;2.10
37956;DHT22;23776;51.592;7.180;2023-12-20T09:18:17;7.20;1.00
37956;DHT22;23776;51.592;7.180;2023-12-20T09:20:43;7.20;1.00
37956;DHT22;23776;51.592;7.180;2023-12-20T09:23:08;7.20;1.00
37956;DHT22;23776;51.592;7.180;2023-12-20T09:25:34;7.20;1.00
37956;DHT22;23776;51.592;7.180;2023-12-20T09:27:59;7.20;1.00
37956;DHT22;23776;51.592;7.180;2023-12-20T09:30:25;7.20;1.00
37956;DHT22;23776;51.592;7.180;2023-12-20T09:32:51;7.20;1.00
37956;DHT22;23776;51.592;7.180;2023-12-20T09:35:16;7.20;1.00
37956;DHT22;23776;51.592;7.180;2023-12-20T09:37:42;7.20;1.00
37956;DHT22;23776;51.592;7.180;2023-12-20T09:40:12;7.30;1.00
37956;DHT22;23776;51.592;7.180;2023-12-20T09:42:56;7.30;1.00
37956;DHT22;23776;51.592;7.180;2023-12-20T09:45:22;7.40;1.00
37956;DHT22;23776;51.592;7.180;2023-12-20T09:47:54;7.40;1.00
37956;DHT22;23776;51.592;7.180;2023-12-20T09:50:22;7.30;1.00
37956;DHT22;23776;51.592;7.180;2023-12-20T09:52:50;7.40;1.00
37956;DHT22;23776;51.592;7.180;2023-12-20T09:55:17;7.40;1.00
37956;DHT22;23776;51.592;7.180;2023-12-20T09:57:44;7.40;1.00
37956;DHT22;23776;51.592;7.180;2023-12-20T10:00:10;7.40;1.00
37956;DHT22;23776;51.592;7.180;2023-12-20T10:02:38;7.50;1.00
37956;DHT22;23776;51.592;7.180;2023-12-20T10:05:08;7.40;1.00
37956;DHT22;23776;51.592;7.180;2023-12-20T10:07:36;7.40;1.00
37956;DHT22;23776;51.592;7.180;2023-12-20T10:10:02;7.40;1.00
37956;DHT22;23776;51.592;7.180;2023-12-20T10:12:28;7.40;1.00
37956;DHT22;23776;51.592;7.180;2023-12-20T10:14:53;7.40;1.00
37956;DHT22;23776;51.592;7.180;2023-12-20T10:17:19;7.50;1.00
37956;DHT22;23776;51.592;7.180;2023-12-20T10:19:46;7.40;1.00
37956;DHT22;23776;51.592;7.180;2023-12-20T10:22:12;7.40;3.10
37956;DHT22;23776;51.592;7.180;2023-12-20T10:24:37;7.40;10.30
37956;DHT22;23776;51.592;7.180;2023-12-20T10:27:04;7.30;11.60
37956;DHT22;23776;51.592;7.180;2023-12-20T10:29:36;7.20;18.70
37956;DHT22;23776;51.592;7.180;2023-12-20T10:32:32;7.20;27.40
37956;DHT22;23776;51.592;7.180;2023-12-20T10:34:58;7.20;26.50
37956;DHT22;23776;51.592;7.180;2023-12-20T10:37:24;7.30;24.10
37956;DHT22;23776;51.592;7.180;2023-12-20T10:39:52;7.30;23.30
37956;DHT22;23776;51.592;7.180;2023-12-20T10:42:22;7.30;24.90
37956;DHT22;23776;51.592;7.180;2023-12-20T10:44:49;7.30;20.40
37956;DHT22;23776;51.592;7.180;2023-12-20T10:47:15;7.30;19.50
37956;DHT22;23776;51.592;7.180;2023-12-20T10:49:42;10.20;14.50
37956;DHT22;23776;51.592;7.180;2023-12-20T10:52:08;7.40;13.50
37956;DHT22;23776;51.592;7.180;2023-12-20T10:54:34;7.40;15.50
37956;DHT22;23776;51.592;7.180;2023-12-20T10:57:00;7.40;8.60
37956;DHT22;23776;51.592;7.180;2023-12-20T10:59:29;7.50;4.00
37956;DHT22;23776;51.592;7.180;2023-12-20T11:01:59;7.60;4.20
37956;DHT22;23776;51.592;7.180;2023-12-20T11:04:49;7.50;4.30
37956;DHT22;23776;51.592;7.180;2023-12-20T11:07:25;6.90;1.00
37956;DHT22;23776;51.592;7.180;2023-12-20T11:10:13;7.50;1.00
37956;DHT22;23776;51.592;7.180;2023-12-20T11:13:06;7.60;1.00
37956;DHT22;23776;51.592;7.180;2023-12-20T11:15:36;7.70;1.00
37956;DHT22;23776;51.592;7.180;2023-12-20T11:18:02;7.80;1.00
37956;DHT22;23776;51.592;7.180;2023-12-20T11:20:39;7.80;1.00
37956;DHT22;23776;51.592;7.180;2023-12-20T11:23:06;7.80;1.00
37956;DHT22;23776;51.592;7.180;2023-12-20T11:25:52;7.80;1.00
37956;DHT22;23776;51.592;7.180;2023-12-20T11:28:24;7.80;7.50
37956;DHT22;23776;51.592;7.180;2023-12-20T11:30:55;7.70;8.50
37956;DHT22;23776;51.592;7.180;2023-12-20T11:33:24;7.70;12.30
37956;DHT22;23776;51.592;7.180;2023-12-20T11:35:50;7.60;21.50
37956;DHT22;23776;51.592;7.180;2023-12-20T11:38:16;7.50;32.90
37956;DHT22;23776;51.592;7.180;2023-12-20T11:40:42;7.50;33.60
37956;DHT22;23776;51.592;7.180;2023-12-20T11:43:09;7.40;41.80
37956;DHT22;23776;51.592;7.180;2023-12-20T11:45:35;7.30;50.00
37956;DHT22;23776;51.592;7.180;2023-12-20T11:48:02;7.20;55.70
37956;DHT22;23776;51.592;7.180;2023-12-20T11:50:28;7.30;58.70
37956;DHT22;23776;51.592;7.180;2023-12-20T11:52:55;7.20;58.90
37956;DHT22;23776;51.592;7.180;2023-12-20T11:55:24;7.20;60.20
37956;DHT22;23776;51.592;7.180;2023-12-20T11:57:50;7.20;62.20
37956;DHT22;23776;51.592;7.180;2023-12-20T12:00:17;7.20;61.90
37956;DHT22;23776;51.592;7.180;2023-12-20T12:02:43;7.20;64.00
37956;DHT22;23776;51.592;7.180;2023-12-20T12:05:08;7.20;63.30
37956;DHT22;23776;51.592;7.180;2023-12-20T12:07:35;7.10;64.80
37956;DHT22;23776;51.592;7.180;2023-12-20T12:10:00;7.00;69.80
37956;DHT22;23776;51.592;7.180;2023-12-20T12:12:26;7.10;67.80
37956;DHT22;23776;51.592;7.180;2023-12-20T12:14:53;7.10;64.90
37956;DHT22;23776;51.592;7.180;2023-12-20T12:17:19;7.10;68.10
37956;DHT22;23776;51.592;7.180;2023-12-20T12:19:45;7.10;64.40
37956;DHT22;23776;51.592;7.180;2023-12-20T12:22:13;7.00;63.70
37956;DHT22;23776;51.592;7.180;2023-12-20T12:24:46;7.00;65.20
37956;DHT22;23776;51.592;7.180;2023-12-20T12:27:13;7.10;69.40
37956;DHT22;23776;51.592;7.180;2023-12-20T12:29:39;7.10;71.00
37956;DHT22;23776;51.592;7.180;2023-12-20T12:32:06;7.10;70.00
37956;DHT22;23776;51.592;7.180;2023-12-20T12:34:33;7.10;67.80
37956;DHT22;23776;51.592;7.180;2023-12-20T12:36:59;7.20;69.50
37956;DHT22;23776;51.592;7.180;2023-12-20T12:39:25;7.20;67.20
37956;DHT22;23776;51.592;7.180;2023-12-20T12:41:51;7.20;66.30
37956;DHT22;23776;51.592;7.180;2023-12-20T12:44:17;7.20;66.70
37956;DHT22;23776;51.592;7.180;2023-12-20T12:46:46;7.10;66.10
37956;DHT22;23776;51.592;7.180;2023-12-20T12:49:12;7.20;67.10
37956;DHT22;23776;51.592;7.180;2023-12-20T12:51:37;7.20;65.10
37956;DHT22;23776;51.592;7.180;2023-12-20T12:54:03;7.30;60.50
37956;DHT22;23776;51.592;7.180;2023-12-20T12:56:29;7.40;56.30
37956;DHT22;23776;51.592;7.180;2023-12-20T12:58:55;7.30;56.00
37956;DHT22;23776;51.592;7.180;2023-12-20T13:01:20;7.40;51.40
37956;DHT22;23776;51.592;7.180;2023-12-20T13:03:46;7.40;48.10
37956;DHT22;23776;51.592;7.180;2023-12-20T13:06:12;7.50;44.00
37956;DHT22;23776;51.592;7.180;2023-12-20T13:08:38;7.50;44.40
37956;DHT22;23776;51.592;7.180;2023-12-20T13:11:04;7.50;39.50
37956;DHT22;23776;51.592;7.180;2023-12-20T13:13:30;7.60;38.60
37956;DHT22;23776;51.592;7.180;2023-12-20T13:15:56;7.60;35.50
37956;DHT22;23776;51.592;7.180;2023-12-20T13:18:23;7.60;38.50
37956;DHT22;23776;51.592;7.180;2023-12-20T13:20:49;7.60;38.70
37956;DHT22;23776;51.592;7.180;2023-12-20T13:23:15;7.70;31.90
37956;DHT22;23776;51.592;7.180;2023-12-20T13:25:43;7.60;37.20
37956;DHT22;23776;51.592;7.180;2023-12-20T13:28:10;7.50;36.50
37956;DHT22;23776;51.592;7.180;2023-12-20T13:30:36;7.50;37.30
37956;DHT22;23776;51.592;7.180;2023-12-20T13:33:01;7.50;42.80
37956;DHT22;23776;51.592;7.180;2023-12-20T13:35:27;7.60;42.80
37956;DHT22;23776;51.592;7.180;2023-12-20T13:37:52;7.60;40.10
37956;DHT22;23776;51.592;7.180;2023-12-20T13:40:18;7.70;35.50
37956;DHT22;23776;51.592;7.180;2023-12-20T13:42:44;7.70;30.30
37956;DHT22;23776;51.592;7.180;2023-12-20T13:45:10;7.70;27.30
37956;DHT22;23776;51.592;7.180;2023-12-20T13:47:36;7.70;27.10
37956;DHT22;23776;51.592;7.180;2023-12-20T13:50:03;9.70;27.80
37956;DHT22;23776;51.592;7.180;2023-12-20T13:52:29;7.50;31.00
37956;DHT22;23776;51.592;7.180;2023-12-20T13:54:54;7.50;38.10
37956;DHT22;23776;51.592;7.180;2023-12-20T13:57:20;7.50;35.30
37956;DHT22;23776;51.592;7.180;2023-12-20T13:59:45;7.60;34.70
37956;DHT22;23776;51.592;7.180;2023-12-20T14:02:11;7.70;29.20
37956;DHT22;23776;51.592;7.180;2023-12-20T14:04:36;7.60;32.30
37956;DHT22;23776;51.592;7.180;2023-12-20T14:07:04;7.60;33.40
37956;DHT22;23776;51.592;7.180;2023-12-20T14:09:30;7.50;36.10
37956;DHT22;23776;51.592;7.180;2023-12-20T14:11:55;7.60;40.60
37956;DHT22;23776;51.592;7.180;2023-12-20T14:14:22;7.60;38.50
37956;DHT22;23776;51.592;7.180;2023-12-20T14:16:47;7.60;41.00
37956;DHT22;23776;51.592;7.180;2023-12-20T14:19:13;7.60;39.70
37956;DHT22;23776;51.592;7.180;2023-12-20T14:21:38;7.50;41.30
37956;DHT22;23776;51.592;7.180;2023-12-20T14:24:04;7.60;44.80
37956;DHT22;23776;51.592;7.180;2023-12-20T14:26:30;7.50;45.60
37956;DHT22;23776;51.592;7.180;2023-12-20T14:28:57;7.40;51.30
37956;DHT22;23776;51.592;7.180;2023-12-20T14:31:23;7.40;55.10
37956;DHT22;23776;51.592;7.180;2023-12-20T14:33:50;7.30;55.30
37956;DHT22;23776;51.592;7.180;2023-12-20T14:36:16;7.30;57.90
37956;DHT22;23776;51.592;7.180;2023-12-20T14:38:43;7.20;62.20
37956;DHT22;23776;51.592;7.180;2023-12-20T14:41:09;7.20;64.20
37956;DHT22;23776;51.592;7.180;2023-12-20T14:43:34;7.30;62.90
37956;DHT22;23776;51.592;7.180;2023-12-20T14:46:00;7.30;54.70
37956;DHT22;23776;51.592;7.180;2023-12-20T14:48:25;7.40;55.70
37956;DHT22;23776;51.592;7.180;2023-12-20T14:50:53;7.40;56.80
37956;DHT22;23776;51.592;7.180;2023-12-20T14:53:19;7.50;52.70
37956;DHT22;23776;51.592;7.180;2023-12-20T14:55:44;7.50;51.30
37956;DHT22;23776;51.592;7.180;2023-12-20T14:58:10;7.50;48.20
37956;DHT22;23776;51.592;7.180;2023-12-20T15:00:36;7.50;48.70
37956;DHT22;23776;51.592;7.180;2023-12-20T15:03:01;7.60;48.30
37956;DHT22;23776;51.592;7.180;2023-12-20T15:05:29;7.40;51.80
37956;DHT22;23776;51.592;7.180;2023-12-20T15:07:55;7.50;52.90
37956;DHT22;23776;51.592;7.180;2023-12-20T15:10:20;7.40;55.50
37956;DHT22;23776;51.592;7.180;2023-12-20T15:12:46;7.50;56.60
37956;DHT22;23776;51.592;7.180;2023-12-20T15:15:12;7.50;50.40
37956;DHT22;23776;51.592;7.180;2023-12-20T15:17:37;7.50;53.80
37956;DHT22;23776;51.592;7.180;2023-12-20T15:20:03;7.50;53.10
37956;DHT22;23776;51.592;7.180;2023-12-20T15:22:30;7.50;55.30
37956;DHT22;23776;51.592;7.180;2023-12-20T15:24:55;7.50;53.30
37956;DHT22;23776;51.592;7.180;2023-12-20T15:27:21;7.60;52.10
37956;DHT22;23776;51.592;7.180;2023-12-20T15:29:47;7.60;52.70
37956;DHT22;23776;51.592;7.180;2023-12-20T15:32:15;7.50;55.10
37956;DHT22;23776;51.592;7.180;2023-12-20T15:34:41;7.50;54.00
37956;DHT22;23776;51.592;7.180;2023-12-20T15:37:07;7.50;56.40
37956;DHT22;23776;51.592;7.180;2023-12-20T15:39:32;7.40;57.40
37956;DHT22;23776;51.592;7.180;2023-12-20T15:41:58;7.50;57.60